createdAt,value
2017-05-01T00:00:57.142Z,0
2017-05-01T00:01:57.806Z,0
2017-05-01T00:02:58.411Z,0
2017-05-01T00:03:59.019Z,0
2017-05-01T00:04:59.633Z,0
2017-05-01T00:06:00.239Z,0
2017-05-01T00:07:00.898Z,0
2017-05-01T00:08:01.541Z,0
2017-05-01T00:09:02.151Z,0
2017-05-01T00:10:02.761Z,0
2017-05-01T00:11:03.368Z,0
2017-05-01T00:12:04.027Z,0
2017-05-01T00:13:04.638Z,0
2017-05-01T00:14:05.245Z,0
2017-05-01T00:15:05.903Z,0
2017-05-01T00:16:06.512Z,0
2017-05-01T00:17:07.123Z,0
2017-05-01T00:18:07.738Z,0
2017-05-01T00:19:08.350Z,0
2017-05-01T00:20:09.012Z,0
2017-05-01T00:21:09.619Z,0
2017-05-01T00:22:10.234Z,0
2017-05-01T00:23:10.887Z,0
2017-05-01T00:24:11.531Z,0
2017-05-01T00:25:12.187Z,0
2017-05-01T00:26:12.797Z,0
2017-05-01T00:27:13.406Z,0
2017-05-01T00:28:14.013Z,0
2017-05-01T00:29:14.626Z,0
2017-05-01T00:30:15.281Z,0
2017-05-01T00:31:15.893Z,0
2017-05-01T00:32:16.501Z,0
2017-05-01T00:33:17.113Z,0
2017-05-01T00:34:17.773Z,0
2017-05-01T00:35:18.381Z,0
2017-05-01T00:36:18.986Z,0
2017-05-01T00:37:19.600Z,0
2017-05-01T00:38:20.207Z,0
2017-05-01T00:39:20.898Z,0
2017-05-01T00:40:21.509Z,0
2017-05-01T00:41:22.156Z,0
2017-05-01T00:42:22.763Z,0
2017-05-01T00:43:23.408Z,0
2017-05-01T00:44:24.068Z,0
2017-05-01T00:45:24.711Z,0
2017-05-01T00:46:25.320Z,0
2017-05-01T00:47:25.932Z,0
2017-05-01T00:48:26.538Z,0
2017-05-01T00:49:27.197Z,0
2017-05-01T00:50:27.804Z,0
2017-05-01T00:51:28.414Z,0
2017-05-01T00:52:29.022Z,0
2017-05-01T00:53:29.633Z,0
2017-05-01T00:54:30.297Z,0
2017-05-01T00:55:30.904Z,0
2017-05-01T00:56:31.512Z,0
2017-05-01T00:57:32.120Z,0
2017-05-01T00:58:32.727Z,0
2017-05-01T00:59:33.386Z,0
2017-05-01T01:00:34.008Z,0
2017-05-01T01:01:34.608Z,0
2017-05-01T01:02:35.217Z,0
2017-05-01T01:03:35.832Z,0
2017-05-01T01:04:36.489Z,0
2017-05-01T01:05:37.097Z,0
2017-05-01T01:06:37.707Z,0
2017-05-01T01:07:38.322Z,0
2017-05-01T01:08:38.929Z,0
2017-05-01T01:09:39.592Z,0
2017-05-01T01:10:40.198Z,0
2017-05-01T01:11:40.811Z,0
2017-05-01T01:12:41.450Z,0
2017-05-01T01:13:42.059Z,0
2017-05-01T01:14:42.718Z,0
2017-05-01T01:15:43.327Z,0
2017-05-01T01:16:43.943Z,0
2017-05-01T01:17:44.548Z,0
2017-05-01T01:18:45.155Z,0
2017-05-01T01:19:45.816Z,0
2017-05-01T01:20:46.475Z,0
2017-05-01T01:21:47.084Z,0
2017-05-01T01:22:47.696Z,0
2017-05-01T01:23:48.306Z,0
2017-05-01T01:24:48.913Z,0
2017-05-01T01:25:49.570Z,0
2017-05-01T01:26:50.183Z,0
2017-05-01T01:27:50.787Z,0
2017-05-01T01:28:51.396Z,0
2017-05-01T01:29:52.004Z,0
2017-05-01T01:30:52.667Z,0
2017-05-01T01:31:53.279Z,0
2017-05-01T01:32:53.889Z,0
2017-05-01T01:33:54.494Z,0
2017-05-01T01:34:55.136Z,0
2017-05-01T01:35:55.794Z,0
2017-05-01T01:36:56.403Z,0
2017-05-01T01:37:57.049Z,0
2017-05-01T01:38:57.654Z,0
2017-05-01T01:39:58.268Z,0
2017-05-01T01:40:58.926Z,0
2017-05-01T01:41:59.535Z,0
2017-05-01T01:43:00.145Z,0
2017-05-01T01:44:00.759Z,0
2017-05-01T01:45:01.364Z,0
2017-05-01T01:46:02.024Z,0
2017-05-01T01:47:02.631Z,0
2017-05-01T01:48:03.239Z,0
2017-05-01T01:49:03.879Z,0
2017-05-01T01:50:04.487Z,0
2017-05-01T01:51:05.146Z,0
2017-05-01T01:52:05.787Z,0
2017-05-01T01:53:06.402Z,0
2017-05-01T01:54:07.009Z,0
2017-05-01T01:55:07.619Z,0
2017-05-01T01:56:08.311Z,0
2017-05-01T01:57:08.919Z,0
2017-05-01T01:58:09.526Z,0
2017-05-01T01:59:10.145Z,0
2017-05-01T02:00:10.747Z,0
2017-05-01T02:01:11.411Z,0
2017-05-01T02:02:12.024Z,0
2017-05-01T02:03:12.630Z,0
2017-05-01T02:04:13.247Z,0
2017-05-01T02:05:13.846Z,0
2017-05-01T02:06:14.538Z,0
2017-05-01T02:07:15.185Z,0
2017-05-01T02:08:15.796Z,0
2017-05-01T02:09:16.448Z,0
2017-05-01T02:10:17.056Z,0
2017-05-01T02:11:17.712Z,0
2017-05-01T02:12:18.323Z,0
2017-05-01T02:13:18.937Z,0
2017-05-01T02:14:19.543Z,0
2017-05-01T02:15:20.157Z,0
2017-05-01T02:16:20.813Z,0
2017-05-01T02:17:21.421Z,0
2017-05-01T02:18:22.040Z,0
2017-05-01T02:19:22.679Z,0
2017-05-01T02:20:23.285Z,0
2017-05-01T02:21:23.942Z,0
2017-05-01T02:22:24.552Z,0
2017-05-01T02:23:25.161Z,0
2017-05-01T02:24:25.804Z,0
2017-05-01T02:25:26.414Z,0
2017-05-01T02:26:27.107Z,0
2017-05-01T02:27:27.714Z,0
2017-05-01T02:28:28.329Z,0
2017-05-01T02:29:28.933Z,0
2017-05-01T02:30:29.541Z,0
2017-05-01T02:31:30.199Z,0
2017-05-01T02:32:30.822Z,0
2017-05-01T02:33:31.456Z,0
2017-05-01T02:34:32.066Z,0
2017-05-01T02:35:32.677Z,0
2017-05-01T02:36:33.368Z,0
2017-05-01T02:37:33.981Z,0
2017-05-01T02:38:34.589Z,0
2017-05-01T02:39:35.196Z,0
2017-05-01T02:40:35.804Z,0
2017-05-01T02:41:36.461Z,0
2017-05-01T02:42:37.076Z,0
2017-05-01T02:43:37.684Z,0
2017-05-01T02:44:38.290Z,0
2017-05-01T02:45:38.904Z,0
2017-05-01T02:46:39.566Z,0
2017-05-01T02:47:40.205Z,0
2017-05-01T02:48:40.813Z,0
2017-05-01T02:49:41.420Z,0
2017-05-01T02:50:42.030Z,0
2017-05-01T02:51:42.719Z,0
2017-05-01T02:52:43.360Z,0
2017-05-01T02:53:43.977Z,0
2017-05-01T02:54:44.584Z,0
2017-05-01T02:55:45.191Z,0
2017-05-01T02:56:45.855Z,0
2017-05-01T02:57:46.461Z,0
2017-05-01T02:58:47.069Z,0
2017-05-01T02:59:47.681Z,0
2017-05-01T03:00:48.292Z,0
2017-05-01T03:01:48.982Z,0
2017-05-01T03:02:49.595Z,0
2017-05-01T03:03:50.201Z,0
2017-05-01T03:04:50.810Z,0
2017-05-01T03:05:51.416Z,0
2017-05-01T03:06:52.077Z,0
2017-05-01T03:07:52.682Z,0
2017-05-01T03:08:53.289Z,0
2017-05-01T03:09:53.898Z,0
2017-05-01T03:10:54.507Z,0
2017-05-01T03:11:55.175Z,0
2017-05-01T03:12:55.777Z,0
2017-05-01T03:13:56.386Z,0
2017-05-01T03:14:56.999Z,0
2017-05-01T03:15:57.604Z,0
2017-05-01T03:16:58.261Z,0
2017-05-01T03:17:58.877Z,0
2017-05-01T03:18:59.486Z,0
2017-05-01T03:20:00.092Z,0
2017-05-01T03:21:00.705Z,0
2017-05-01T03:22:01.361Z,0
2017-05-01T03:23:01.967Z,0
2017-05-01T03:24:02.575Z,0
2017-05-01T03:25:03.191Z,0
2017-05-01T03:26:03.798Z,0
2017-05-01T03:27:04.454Z,0
2017-05-01T03:28:05.064Z,0
2017-05-01T03:29:05.670Z,0
2017-05-01T03:30:06.283Z,0
2017-05-01T03:31:06.896Z,0
2017-05-01T03:32:07.550Z,0
2017-05-01T03:33:08.164Z,0
2017-05-01T03:34:08.804Z,0
2017-05-01T03:35:09.412Z,0
2017-05-01T03:36:10.018Z,0
2017-05-01T03:37:10.677Z,0
2017-05-01T03:38:11.284Z,0
2017-05-01T03:39:11.890Z,0
2017-05-01T03:40:12.504Z,0
2017-05-01T03:41:13.110Z,0
2017-05-01T03:42:13.777Z,0
2017-05-01T03:43:14.381Z,0
2017-05-01T03:44:14.988Z,0
2017-05-01T03:45:15.596Z,0
2017-05-01T03:46:16.203Z,0
2017-05-01T03:47:16.860Z,0
2017-05-01T03:48:17.476Z,0
2017-05-01T03:49:18.087Z,0
2017-05-01T03:50:18.691Z,0
2017-05-01T03:51:19.305Z,0
2017-05-01T03:52:19.959Z,0
2017-05-01T03:53:20.566Z,0
2017-05-01T03:54:21.208Z,0
2017-05-01T03:55:21.816Z,0
2017-05-01T03:56:22.429Z,0
2017-05-01T03:57:23.085Z,0
2017-05-01T03:58:23.726Z,0
2017-05-01T03:59:24.338Z,0
2017-05-01T04:00:24.943Z,0
2017-05-01T04:01:25.551Z,0
2017-05-01T04:02:26.219Z,0
2017-05-01T04:03:26.823Z,0
2017-05-01T04:04:27.429Z,0
2017-05-01T04:05:28.037Z,0
2017-05-01T04:06:28.652Z,0
2017-05-01T04:07:29.344Z,0
2017-05-01T04:08:29.952Z,0
2017-05-01T04:09:30.559Z,0
2017-05-01T04:10:31.231Z,0
2017-05-01T04:11:31.809Z,0
2017-05-01T04:12:32.466Z,0
2017-05-01T04:13:33.073Z,0
2017-05-01T04:14:33.681Z,0
2017-05-01T04:15:34.286Z,0
2017-05-01T04:16:34.902Z,4
2017-05-01T04:17:35.556Z,0
2017-05-01T04:18:36.163Z,0
2017-05-01T04:19:36.775Z,0
2017-05-01T04:20:37.380Z,0
2017-05-01T04:21:37.988Z,0
2017-05-01T04:22:38.643Z,0
2017-05-01T04:23:39.257Z,0
2017-05-01T04:24:39.863Z,0
2017-05-01T04:25:40.477Z,0
2017-05-01T04:26:41.082Z,0
2017-05-01T04:27:41.738Z,0
2017-05-01T04:28:42.346Z,0
2017-05-01T04:29:42.953Z,0
2017-05-01T04:30:43.564Z,0
2017-05-01T04:31:44.212Z,4
2017-05-01T04:32:44.872Z,0
2017-05-01T04:33:45.482Z,0
2017-05-01T04:34:46.086Z,0
2017-05-01T04:35:46.693Z,0
2017-05-01T04:36:47.306Z,4
2017-05-01T04:37:48.002Z,4
2017-05-01T04:38:48.608Z,4
2017-05-01T04:39:49.211Z,4
2017-05-01T04:40:49.819Z,8
2017-05-01T04:41:50.427Z,8
2017-05-01T04:42:51.085Z,8
2017-05-01T04:43:51.699Z,8
2017-05-01T04:44:52.303Z,8
2017-05-01T04:45:52.910Z,8
2017-05-01T04:46:53.515Z,8
2017-05-01T04:47:54.173Z,8
2017-05-01T04:48:54.786Z,8
2017-05-01T04:49:55.392Z,12
2017-05-01T04:50:55.998Z,8
2017-05-01T04:51:56.605Z,12
2017-05-01T04:52:57.263Z,16
2017-05-01T04:53:57.872Z,16
2017-05-01T04:54:58.478Z,16
2017-05-01T04:55:59.087Z,20
2017-05-01T04:56:59.695Z,16
2017-05-01T04:58:00.356Z,16
2017-05-01T04:59:00.969Z,20
2017-05-01T05:00:01.578Z,20
2017-05-01T05:01:02.183Z,20
2017-05-01T05:02:02.787Z,16
2017-05-01T05:03:03.447Z,16
2017-05-01T05:04:04.054Z,20
2017-05-01T05:05:04.696Z,16
2017-05-01T05:06:05.303Z,16
2017-05-01T05:07:05.946Z,20
2017-05-01T05:08:06.637Z,20
2017-05-01T05:09:07.244Z,20
2017-05-01T05:10:07.852Z,20
2017-05-01T05:11:08.460Z,20
2017-05-01T05:12:09.069Z,24
2017-05-01T05:13:09.725Z,28
2017-05-01T05:14:10.335Z,28
2017-05-01T05:15:10.944Z,32
2017-05-01T05:16:11.551Z,36
2017-05-01T05:17:12.198Z,44
2017-05-01T05:18:12.851Z,40
2017-05-01T05:19:13.465Z,40
2017-05-01T05:20:14.074Z,40
2017-05-01T05:21:14.680Z,48
2017-05-01T05:22:15.289Z,44
2017-05-01T05:23:15.954Z,44
2017-05-01T05:24:16.558Z,44
2017-05-01T05:25:17.165Z,48
2017-05-01T05:26:17.772Z,48
2017-05-01T05:27:18.379Z,48
2017-05-01T05:28:19.036Z,52
2017-05-01T05:29:19.650Z,48
2017-05-01T05:30:20.255Z,44
2017-05-01T05:31:20.869Z,52
2017-05-01T05:32:21.480Z,52
2017-05-01T05:33:22.143Z,56
2017-05-01T05:34:22.751Z,56
2017-05-01T05:35:23.358Z,64
2017-05-01T05:36:23.971Z,80
2017-05-01T05:37:24.575Z,84
2017-05-01T05:38:25.263Z,84
2017-05-01T05:39:25.869Z,84
2017-05-01T05:40:26.479Z,84
2017-05-01T05:41:27.087Z,92
2017-05-01T05:42:27.695Z,108
2017-05-01T05:43:28.353Z,124
2017-05-01T05:44:28.961Z,120
2017-05-01T05:45:29.570Z,128
2017-05-01T05:46:30.184Z,140
2017-05-01T05:47:30.840Z,140
2017-05-01T05:48:31.448Z,140
2017-05-01T05:49:32.112Z,148
2017-05-01T05:50:32.767Z,152
2017-05-01T05:51:33.409Z,152
2017-05-01T05:52:34.068Z,152
2017-05-01T05:53:34.729Z,136
2017-05-01T05:54:35.388Z,128
2017-05-01T05:55:36.054Z,128
2017-05-01T05:56:36.665Z,124
2017-05-01T05:57:37.276Z,132
2017-05-01T05:58:37.891Z,136
2017-05-01T05:59:38.546Z,124
2017-05-01T06:00:39.206Z,120
2017-05-01T06:01:39.864Z,124
2017-05-01T06:02:40.523Z,124
2017-05-01T06:03:41.183Z,124
2017-05-01T06:04:41.866Z,132
2017-05-01T06:05:42.585Z,132
2017-05-01T06:06:43.331Z,136
2017-05-01T06:07:43.968Z,144
2017-05-01T06:08:44.624Z,144
2017-05-01T06:09:45.281Z,148
2017-05-01T06:10:45.973Z,144
2017-05-01T06:11:46.581Z,140
2017-05-01T06:12:47.188Z,144
2017-05-01T06:13:47.798Z,140
2017-05-01T06:14:48.456Z,140
2017-05-01T06:15:49.064Z,132
2017-05-01T06:16:49.724Z,140
2017-05-01T06:17:50.417Z,144
2017-05-01T06:18:51.027Z,148
2017-05-01T06:19:51.636Z,136
2017-05-01T06:20:52.250Z,144
2017-05-01T06:21:52.917Z,156
2017-05-01T06:22:53.521Z,164
2017-05-01T06:23:54.180Z,172
2017-05-01T06:24:54.841Z,168
2017-05-01T06:25:55.451Z,164
2017-05-01T06:26:56.110Z,160
2017-05-01T06:27:56.721Z,160
2017-05-01T06:28:57.411Z,160
2017-05-01T06:29:58.074Z,160
2017-05-01T06:30:58.733Z,168
2017-05-01T06:31:59.391Z,172
2017-05-01T06:33:00.072Z,172
2017-05-01T06:34:00.689Z,188
2017-05-01T06:35:01.345Z,188
2017-05-01T06:36:01.954Z,188
2017-05-01T06:37:02.563Z,200
2017-05-01T06:38:03.221Z,200
2017-05-01T06:39:03.880Z,212
2017-05-01T06:40:04.489Z,200
2017-05-01T06:41:05.097Z,204
2017-05-01T06:42:05.756Z,200
2017-05-01T06:43:06.420Z,196
2017-05-01T06:44:07.076Z,176
2017-05-01T06:45:07.740Z,196
2017-05-01T06:46:08.345Z,200
2017-05-01T06:47:08.953Z,204
2017-05-01T06:48:09.643Z,196
2017-05-01T06:49:10.303Z,204
2017-05-01T06:50:10.912Z,212
2017-05-01T06:51:11.529Z,208
2017-05-01T06:52:12.184Z,204
2017-05-01T06:53:12.844Z,216
2017-05-01T06:54:13.526Z,216
2017-05-01T06:55:14.191Z,212
2017-05-01T06:56:14.851Z,216
2017-05-01T06:57:15.459Z,220
2017-05-01T06:58:16.074Z,204
2017-05-01T06:59:16.682Z,216
2017-05-01T07:00:17.343Z,208
2017-05-01T07:01:18.248Z,208
2017-05-01T07:02:19.241Z,204
2017-05-01T07:03:19.972Z,200
2017-05-01T07:04:20.577Z,196
2017-05-01T07:05:21.500Z,204
2017-05-01T07:06:22.165Z,212
2017-05-01T07:07:23.069Z,204
2017-05-01T07:08:24.012Z,204
2017-05-01T07:09:24.626Z,208
2017-05-01T07:10:25.538Z,200
2017-05-01T07:11:26.195Z,216
2017-05-01T07:12:27.055Z,224
2017-05-01T07:13:27.715Z,240
2017-05-01T07:14:28.325Z,244
2017-05-01T07:15:28.934Z,244
2017-05-01T07:16:29.552Z,248
2017-05-01T07:17:30.214Z,240
2017-05-01T07:18:30.880Z,244
2017-05-01T07:19:31.531Z,244
2017-05-01T07:20:32.140Z,244
2017-05-01T07:21:32.750Z,248
2017-05-01T07:22:33.414Z,252
2017-05-01T07:23:34.023Z,256
2017-05-01T07:24:34.683Z,252
2017-05-01T07:25:35.296Z,248
2017-05-01T07:26:35.954Z,232
2017-05-01T07:27:36.561Z,224
2017-05-01T07:28:37.226Z,228
2017-05-01T07:29:37.882Z,236
2017-05-01T07:30:38.574Z,256
2017-05-01T07:31:39.183Z,256
2017-05-01T07:32:39.793Z,264
2017-05-01T07:33:40.433Z,244
2017-05-01T07:34:41.092Z,248
2017-05-01T07:35:41.753Z,260
2017-05-01T07:36:42.413Z,264
2017-05-01T07:37:43.021Z,264
2017-05-01T07:38:43.720Z,260
2017-05-01T07:39:44.378Z,264
2017-05-01T07:40:45.037Z,264
2017-05-01T07:41:45.647Z,272
2017-05-01T07:42:46.305Z,276
2017-05-01T07:43:46.967Z,288
2017-05-01T07:44:47.576Z,296
2017-05-01T07:45:48.235Z,300
2017-05-01T07:46:48.902Z,308
2017-05-01T07:47:49.561Z,316
2017-05-01T07:48:50.202Z,312
2017-05-01T07:49:50.862Z,324
2017-05-01T07:50:51.472Z,328
2017-05-01T07:51:52.135Z,316
2017-05-01T07:52:52.748Z,316
2017-05-01T07:53:53.408Z,312
2017-05-01T07:54:54.022Z,324
2017-05-01T07:55:54.679Z,328
2017-05-01T07:56:55.347Z,336
2017-05-01T07:57:55.954Z,324
2017-05-01T07:58:56.617Z,336
2017-05-01T07:59:57.225Z,320
2017-05-01T08:00:57.886Z,324
2017-05-01T08:01:58.495Z,320
2017-05-01T08:02:59.106Z,316
2017-05-01T08:03:59.765Z,328
2017-05-01T08:05:00.425Z,324
2017-05-01T08:06:01.085Z,316
2017-05-01T08:07:01.697Z,320
2017-05-01T08:08:02.307Z,312
2017-05-01T08:09:02.967Z,304
2017-05-01T08:10:03.660Z,312
2017-05-01T08:11:04.271Z,312
2017-05-01T08:12:04.933Z,304
2017-05-01T08:13:05.542Z,312
2017-05-01T08:14:06.207Z,324
2017-05-01T08:15:06.867Z,336
2017-05-01T08:16:07.475Z,360
2017-05-01T08:17:08.143Z,352
2017-05-01T08:18:08.788Z,348
2017-05-01T08:19:09.447Z,356
2017-05-01T08:20:10.106Z,376
2017-05-01T08:21:10.772Z,392
2017-05-01T08:22:11.377Z,396
2017-05-01T08:23:11.987Z,396
2017-05-01T08:24:12.655Z,404
2017-05-01T08:25:13.343Z,424
2017-05-01T08:26:13.953Z,428
2017-05-01T08:27:14.613Z,420
2017-05-01T08:28:15.222Z,412
2017-05-01T08:29:15.868Z,400
2017-05-01T08:30:16.524Z,428
2017-05-01T08:31:17.183Z,440
2017-05-01T08:32:17.842Z,456
2017-05-01T08:33:18.492Z,436
2017-05-01T08:34:19.157Z,436
2017-05-01T08:35:19.813Z,440
2017-05-01T08:36:20.480Z,436
2017-05-01T08:37:21.086Z,436
2017-05-01T08:38:21.705Z,432
2017-05-01T08:39:22.365Z,432
2017-05-01T08:40:23.022Z,444
2017-05-01T08:41:23.632Z,428
2017-05-01T08:42:24.293Z,420
2017-05-01T08:43:24.960Z,428
2017-05-01T08:44:25.565Z,440
2017-05-01T08:45:26.229Z,480
2017-05-01T08:46:26.875Z,528
2017-05-01T08:47:27.541Z,544
2017-05-01T08:48:28.196Z,548
2017-05-01T08:49:28.857Z,548
2017-05-01T08:50:29.501Z,568
2017-05-01T08:51:30.117Z,568
2017-05-01T08:52:30.724Z,560
2017-05-01T08:53:31.415Z,564
2017-05-01T08:54:32.085Z,580
2017-05-01T08:55:32.775Z,592
2017-05-01T08:56:33.433Z,600
2017-05-01T08:57:34.044Z,600
2017-05-01T08:58:34.703Z,600
2017-05-01T08:59:35.363Z,608
2017-05-01T09:00:36.022Z,624
2017-05-01T09:01:36.681Z,644
2017-05-01T09:02:37.290Z,660
2017-05-01T09:03:37.901Z,660
2017-05-01T09:04:38.516Z,660
2017-05-01T09:05:39.179Z,656
2017-05-01T09:06:39.791Z,660
2017-05-01T09:07:40.448Z,656
2017-05-01T09:08:41.066Z,648
2017-05-01T09:09:41.736Z,664
2017-05-01T09:10:42.438Z,680
2017-05-01T09:11:43.049Z,692
2017-05-01T09:12:43.705Z,688
2017-05-01T09:13:44.318Z,680
2017-05-01T09:14:44.933Z,664
2017-05-01T09:15:45.597Z,648
2017-05-01T09:16:46.240Z,644
2017-05-01T09:17:46.904Z,644
2017-05-01T09:18:47.571Z,648
2017-05-01T09:19:48.215Z,656
2017-05-01T09:20:48.877Z,672
2017-05-01T09:21:49.535Z,680
2017-05-01T09:22:50.195Z,692
2017-05-01T09:23:50.855Z,704
2017-05-01T09:24:51.466Z,712
2017-05-01T09:25:52.076Z,728
2017-05-01T09:26:52.691Z,740
2017-05-01T09:27:53.349Z,768
2017-05-01T09:28:54.008Z,792
2017-05-01T09:29:54.618Z,828
2017-05-01T09:30:55.277Z,844
2017-05-01T09:31:55.942Z,844
2017-05-01T09:32:56.581Z,836
2017-05-01T09:33:57.157Z,836
2017-05-01T09:34:57.817Z,848
2017-05-01T09:35:58.727Z,864
2017-05-01T09:36:59.386Z,880
2017-05-01T09:37:59.995Z,884
2017-05-01T09:39:00.886Z,880
2017-05-01T09:40:01.779Z,880
2017-05-01T09:41:02.421Z,876
2017-05-01T09:42:03.315Z,880
2017-05-01T09:43:03.925Z,888
2017-05-01T09:44:04.840Z,912
2017-05-01T09:45:05.755Z,932
2017-05-01T09:46:06.356Z,940
2017-05-01T09:47:07.218Z,952
2017-05-01T09:48:08.128Z,964
2017-05-01T09:49:08.798Z,984
2017-05-01T09:50:09.701Z,996
2017-05-01T09:51:10.308Z,1016
2017-05-01T09:52:11.003Z,1032
2017-05-01T09:53:11.666Z,1048
2017-05-01T09:54:12.315Z,1060
2017-05-01T09:55:12.973Z,1056
2017-05-01T09:56:13.841Z,1036
2017-05-01T09:57:14.501Z,1024
2017-05-01T09:58:15.117Z,1004
2017-05-01T09:59:15.774Z,1008
2017-05-01T10:00:16.437Z,1024
2017-05-01T10:01:17.099Z,1052
2017-05-01T10:02:17.759Z,1072
2017-05-01T10:03:18.428Z,1084
2017-05-01T10:04:19.141Z,1092
2017-05-01T10:05:19.801Z,1100
2017-05-01T10:06:20.463Z,1108
2017-05-01T10:07:21.079Z,1116
2017-05-01T10:08:21.743Z,1124
2017-05-01T10:09:22.351Z,1152
2017-05-01T10:10:22.971Z,1176
2017-05-01T10:11:23.576Z,1184
2017-05-01T10:12:24.237Z,1180
2017-05-01T10:13:24.903Z,1168
2017-05-01T10:14:25.569Z,1160
2017-05-01T10:15:26.262Z,1172
2017-05-01T10:16:26.872Z,1192
2017-05-01T10:17:27.485Z,1200
2017-05-01T10:18:28.180Z,1220
2017-05-01T10:19:28.843Z,1224
2017-05-01T10:20:29.511Z,1228
2017-05-01T10:21:30.171Z,1240
2017-05-01T10:22:30.783Z,1248
2017-05-01T10:23:31.476Z,1252
2017-05-01T10:24:32.118Z,1256
2017-05-01T10:25:32.779Z,1260
2017-05-01T10:26:33.442Z,1268
2017-05-01T10:27:34.109Z,1280
2017-05-01T10:28:34.814Z,1288
2017-05-01T10:29:35.425Z,1296
2017-05-01T10:30:36.085Z,1304
2017-05-01T10:31:36.697Z,1324
2017-05-01T10:32:37.308Z,1328
2017-05-01T10:33:37.972Z,1324
2017-05-01T10:34:38.635Z,1320
2017-05-01T10:35:39.301Z,1328
2017-05-01T10:36:39.912Z,1332
2017-05-01T10:37:40.573Z,1332
2017-05-01T10:38:41.240Z,1320
2017-05-01T10:39:41.903Z,1316
2017-05-01T10:40:42.513Z,1312
2017-05-01T10:41:43.125Z,1300
2017-05-01T10:42:43.786Z,1276
2017-05-01T10:43:44.398Z,1256
2017-05-01T10:44:45.060Z,1244
2017-05-01T10:45:45.672Z,1236
2017-05-01T10:46:46.282Z,1232
2017-05-01T10:47:46.945Z,1220
2017-05-01T10:48:47.641Z,1208
2017-05-01T10:49:48.302Z,1196
2017-05-01T10:50:48.916Z,1192
2017-05-01T10:51:49.529Z,1196
2017-05-01T10:52:50.195Z,1192
2017-05-01T10:53:50.860Z,1192
2017-05-01T10:54:51.474Z,1188
2017-05-01T10:55:52.083Z,1184
2017-05-01T10:56:52.746Z,1188
2017-05-01T10:57:53.405Z,1192
2017-05-01T10:58:54.067Z,1204
2017-05-01T10:59:54.730Z,1220
2017-05-01T11:00:55.342Z,1232
2017-05-01T11:01:55.957Z,1244
2017-05-01T11:02:56.621Z,1252
2017-05-01T11:03:57.280Z,1248
2017-05-01T11:04:57.949Z,1236
2017-05-01T11:05:58.607Z,1212
2017-05-01T11:06:59.220Z,1188
2017-05-01T11:07:59.838Z,1192
2017-05-01T11:09:00.490Z,1208
2017-05-01T11:10:01.154Z,1220
2017-05-01T11:11:01.821Z,1232
2017-05-01T11:12:02.480Z,1240
2017-05-01T11:13:03.141Z,1212
2017-05-01T11:14:03.810Z,1200
2017-05-01T11:15:04.476Z,1192
2017-05-01T11:16:05.092Z,1208
2017-05-01T11:17:05.788Z,1232
2017-05-01T11:18:06.402Z,1252
2017-05-01T11:19:07.064Z,1256
2017-05-01T11:20:07.727Z,1260
2017-05-01T11:21:08.340Z,1260
2017-05-01T11:22:08.952Z,1244
2017-05-01T11:23:09.614Z,1228
2017-05-01T11:24:10.284Z,1212
2017-05-01T11:25:10.946Z,1196
2017-05-01T11:26:11.640Z,1196
2017-05-01T11:27:12.254Z,1224
2017-05-01T11:28:12.873Z,1256
2017-05-01T11:29:13.489Z,1296
2017-05-01T11:30:14.098Z,1336
2017-05-01T11:31:14.761Z,1372
2017-05-01T11:32:15.374Z,1392
2017-05-01T11:33:16.019Z,1400
2017-05-01T11:34:16.636Z,1384
2017-05-01T11:35:17.246Z,1384
2017-05-01T11:36:17.909Z,1364
2017-05-01T11:37:18.560Z,1380
2017-05-01T11:38:19.176Z,1380
2017-05-01T11:39:19.787Z,1400
2017-05-01T11:40:20.399Z,1416
2017-05-01T11:41:21.066Z,1436
2017-05-01T11:42:21.676Z,1432
2017-05-01T11:43:22.290Z,1424
2017-05-01T11:44:22.960Z,1408
2017-05-01T11:45:23.566Z,1388
2017-05-01T11:46:24.179Z,1376
2017-05-01T11:47:24.796Z,1352
2017-05-01T11:48:25.407Z,1320
2017-05-01T11:49:26.068Z,1304
2017-05-01T11:50:26.687Z,1312
2017-05-01T11:51:27.351Z,1320
2017-05-01T11:52:27.965Z,1316
2017-05-01T11:53:28.575Z,1324
2017-05-01T11:54:29.236Z,1332
2017-05-01T11:55:29.880Z,1352
2017-05-01T11:56:30.542Z,1364
2017-05-01T11:57:31.203Z,1368
2017-05-01T11:58:31.822Z,1384
2017-05-01T11:59:32.477Z,1388
2017-05-01T12:00:33.138Z,1400
2017-05-01T12:01:33.802Z,1404
2017-05-01T12:02:34.413Z,1408
2017-05-01T12:03:35.106Z,1400
2017-05-01T12:04:35.717Z,1384
2017-05-01T12:05:36.409Z,1376
2017-05-01T12:06:37.027Z,1372
2017-05-01T12:07:37.636Z,1364
2017-05-01T12:08:38.253Z,1360
2017-05-01T12:09:38.862Z,1344
2017-05-01T12:10:39.529Z,1332
2017-05-01T12:11:40.144Z,1324
2017-05-01T12:12:40.787Z,1320
2017-05-01T12:13:41.400Z,1320
2017-05-01T12:14:42.011Z,1336
2017-05-01T12:15:42.673Z,1352
2017-05-01T12:16:43.289Z,1364
2017-05-01T12:17:43.900Z,1384
2017-05-01T12:18:44.512Z,1400
2017-05-01T12:19:45.130Z,1428
2017-05-01T12:20:45.796Z,1452
2017-05-01T12:21:46.408Z,1476
2017-05-01T12:22:47.020Z,1504
2017-05-01T12:23:47.631Z,1524
2017-05-01T12:24:48.246Z,1552
2017-05-01T12:25:48.915Z,1576
2017-05-01T12:26:49.591Z,1596
2017-05-01T12:27:50.195Z,1620
2017-05-01T12:28:50.809Z,1636
2017-05-01T12:29:51.427Z,1636
2017-05-01T12:30:52.087Z,1612
2017-05-01T12:31:52.701Z,1612
2017-05-01T12:32:53.348Z,1624
2017-05-01T12:33:53.965Z,1648
2017-05-01T12:34:54.610Z,1644
2017-05-01T12:35:55.272Z,1628
2017-05-01T12:36:55.887Z,1608
2017-05-01T12:37:56.501Z,1604
2017-05-01T12:38:57.111Z,1596
2017-05-01T12:39:57.725Z,1592
2017-05-01T12:40:58.387Z,1628
2017-05-01T12:41:59.031Z,1652
2017-05-01T12:42:59.646Z,1632
2017-05-01T12:44:00.297Z,1644
2017-05-01T12:45:00.907Z,1668
2017-05-01T12:46:01.570Z,1676
2017-05-01T12:47:02.187Z,1684
2017-05-01T12:48:02.799Z,1672
2017-05-01T12:49:03.412Z,1656
2017-05-01T12:50:04.025Z,1672
2017-05-01T12:51:04.685Z,1680
2017-05-01T12:52:05.299Z,1680
2017-05-01T12:53:05.913Z,1664
2017-05-01T12:54:06.525Z,1644
2017-05-01T12:55:07.137Z,1612
2017-05-01T12:56:07.799Z,1596
2017-05-01T12:57:08.413Z,1576
2017-05-01T12:58:09.032Z,1568
2017-05-01T12:59:09.648Z,1556
2017-05-01T13:00:10.257Z,1548
2017-05-01T13:01:10.927Z,1564
2017-05-01T13:02:11.537Z,1572
2017-05-01T13:03:12.157Z,1596
2017-05-01T13:04:12.768Z,1620
2017-05-01T13:05:13.388Z,1664
2017-05-01T13:06:14.045Z,1728
2017-05-01T13:07:14.658Z,1800
2017-05-01T13:08:15.270Z,1852
2017-05-01T13:09:15.890Z,1884
2017-05-01T13:10:16.503Z,1916
2017-05-01T13:11:17.166Z,1924
2017-05-01T13:12:17.777Z,1932
2017-05-01T13:13:18.390Z,1924
2017-05-01T13:14:19.005Z,1904
2017-05-01T13:15:19.653Z,1876
2017-05-01T13:16:20.317Z,1828
2017-05-01T13:17:20.929Z,1796
2017-05-01T13:18:21.542Z,1764
2017-05-01T13:19:22.164Z,1700
2017-05-01T13:20:22.776Z,1680
2017-05-01T13:21:23.441Z,1640
2017-05-01T13:22:24.066Z,1608
2017-05-01T13:23:24.676Z,1572
2017-05-01T13:24:25.293Z,1588
2017-05-01T13:25:25.953Z,1608
2017-05-01T13:26:26.606Z,1628
2017-05-01T13:27:27.219Z,1636
2017-05-01T13:28:27.842Z,1624
2017-05-01T13:29:28.488Z,1596
2017-05-01T13:30:29.102Z,1584
2017-05-01T13:31:29.765Z,1572
2017-05-01T13:32:30.380Z,1528
2017-05-01T13:33:31.001Z,1540
2017-05-01T13:34:31.616Z,1568
2017-05-01T13:35:32.227Z,1604
2017-05-01T13:36:32.889Z,1648
2017-05-01T13:37:33.506Z,1676
2017-05-01T13:38:34.117Z,1712
2017-05-01T13:39:34.732Z,1720
2017-05-01T13:40:35.376Z,1744
2017-05-01T13:41:36.072Z,1696
2017-05-01T13:42:36.683Z,1688
2017-05-01T13:43:37.295Z,1756
2017-05-01T13:44:37.915Z,1812
2017-05-01T13:45:38.525Z,1808
2017-05-01T13:46:39.187Z,1752
2017-05-01T13:47:39.800Z,1760
2017-05-01T13:48:40.411Z,1748
2017-05-01T13:49:41.033Z,1724
2017-05-01T13:50:41.645Z,1776
2017-05-01T13:51:42.342Z,1816
2017-05-01T13:52:42.956Z,1820
2017-05-01T13:53:43.570Z,1784
2017-05-01T13:54:44.184Z,1840
2017-05-01T13:55:44.808Z,1916
2017-05-01T13:56:45.471Z,2016
2017-05-01T13:57:46.084Z,2152
2017-05-01T13:58:46.696Z,2212
2017-05-01T13:59:47.311Z,2248
2017-05-01T14:00:47.924Z,2244
2017-05-01T14:01:48.591Z,2084
2017-05-01T14:02:49.205Z,2132
2017-05-01T14:03:49.819Z,2252
2017-05-01T14:04:50.444Z,2372
2017-05-01T14:05:51.050Z,2360
2017-05-01T14:06:51.715Z,2412
2017-05-01T14:07:52.336Z,2444